EWG19F EDDH-EDDS
Flight info
| Callsign | EWG19F |
|---|---|
| Flight time | 0h 59m |
| Altitude | 23000 |
| Route | AMLUH3B AMLUH M852 DENIX Z113 SAS/N0441F330 P605 ELNAT/N0393F230 P605 TOSTU T726 LBU |
| Aircraft | A320/M-SDE3FGHIRWY/LB1 |
Departure
| Time | 2026-04-23 17:14 |
|---|---|
| Airport | Hamburg Helmut Schmidt Airport (EDDH) |
Arrival
| Time | 2026-04-23 18:14 |
|---|---|
| Airport | Stuttgart Airport (EDDS) |
| Time | Latitude | Longitude | Altitude | Speed | Heading |
|---|---|---|---|---|---|
| 2026-04-23 16:35 | 53.63414 | 10.00333 | 49 ft | 0 kts | 85° |
| 2026-04-23 17:04 | 53.63414 | 10.00332 | 48 ft | 1 kts | 85° |
| 2026-04-23 17:04 | 53.63412 | 10.00291 | 48 ft | 4 kts | 85° |
| 2026-04-23 17:04 | 53.63410 | 10.00255 | 48 ft | 4 kts | 93° |
| 2026-04-23 17:05 | 53.63418 | 10.00224 | 47 ft | 4 kts | 165° |
| 2026-04-23 17:05 | 53.63441 | 10.00220 | 45 ft | 2 kts | 176° |
| 2026-04-23 17:05 | 53.63442 | 10.00219 | 48 ft | 0 kts | 176° |
| 2026-04-23 17:08 | 53.63415 | 10.00223 | 48 ft | 8 kts | 175° |
| 2026-04-23 17:09 | 53.63337 | 10.00233 | 46 ft | 15 kts | 176° |
| 2026-04-23 17:09 | 53.63210 | 10.00251 | 48 ft | 22 kts | 174° |
| 2026-04-23 17:09 | 53.63055 | 10.00241 | 47 ft | 20 kts | 208° |
| 2026-04-23 17:09 | 53.62932 | 10.00118 | 48 ft | 21 kts | 213° |
| 2026-04-23 17:10 | 53.62852 | 9.99992 | 48 ft | 13 kts | 243° |
| 2026-04-23 17:10 | 53.62844 | 9.99963 | 48 ft | 0 kts | 246° |
| 2026-04-23 17:12 | 53.62844 | 9.99961 | 48 ft | 1 kts | 246° |
| 2026-04-23 17:12 | 53.62834 | 9.99925 | 47 ft | 5 kts | 244° |
| 2026-04-23 17:12 | 53.62810 | 9.99842 | 45 ft | 10 kts | 245° |
| 2026-04-23 17:12 | 53.62837 | 9.99757 | 45 ft | 10 kts | 338° |
| 2026-04-23 17:13 | 53.62849 | 9.99748 | 45 ft | 0 kts | 334° |
| 2026-04-23 17:13 | 53.62869 | 9.99732 | 43 ft | 13 kts | 334° |
| 2026-04-23 17:13 | 53.63157 | 9.99493 | 46 ft | 81 kts | 334° |
| 2026-04-23 17:14 | 53.63833 | 9.98907 | 49 ft | 135 kts | 333° |
| 2026-04-23 17:14 | 53.64773 | 9.98137 | 373 ft | 154 kts | 329° |
| 2026-04-23 17:14 | 53.65728 | 9.97342 | 1139 ft | 151 kts | 331° |
| 2026-04-23 17:14 | 53.66694 | 9.96509 | 1735 ft | 164 kts | 332° |
| 2026-04-23 17:15 | 53.67758 | 9.95618 | 2225 ft | 177 kts | 334° |
| 2026-04-23 17:15 | 53.68949 | 9.94844 | 2717 ft | 191 kts | 347° |
| 2026-04-23 17:15 | 53.70285 | 9.94767 | 3389 ft | 194 kts | 1° |
| 2026-04-23 17:15 | 53.71648 | 9.94880 | 3995 ft | 199 kts | 4° |
| 2026-04-23 17:16 | 53.72942 | 9.95807 | 4715 ft | 213 kts | 39° |
| 2026-04-23 17:16 | 53.73648 | 9.98079 | 5511 ft | 225 kts | 68° |
| 2026-04-23 17:16 | 53.74045 | 10.00635 | 6365 ft | 226 kts | 72° |
| 2026-04-23 17:16 | 53.74035 | 10.03352 | 7054 ft | 241 kts | 97° |
| 2026-04-23 17:17 | 53.73398 | 10.06091 | 7522 ft | 264 kts | 117° |
| 2026-04-23 17:17 | 53.72446 | 10.08797 | 8049 ft | 279 kts | 117° |
| 2026-04-23 17:17 | 53.71775 | 10.10726 | 8473 ft | 287 kts | 116° |
| 2026-04-23 17:17 | 53.70419 | 10.14730 | 9299 ft | 303 kts | 116° |
| 2026-04-23 17:18 | 53.67622 | 10.20209 | 10667 ft | 327 kts | 144° |
| 2026-04-23 17:18 | 53.65532 | 10.21981 | 10993 ft | 348 kts | 162° |
| 2026-04-23 17:18 | 53.63139 | 10.22973 | 11531 ft | 359 kts | 167° |
| 2026-04-23 17:19 | 53.60693 | 10.24009 | 12152 ft | 366 kts | 165° |
| 2026-04-23 17:19 | 53.58220 | 10.25131 | 12903 ft | 370 kts | 164° |
| 2026-04-23 17:19 | 53.55707 | 10.26304 | 13507 ft | 378 kts | 164° |
| 2026-04-23 17:19 | 53.53167 | 10.27492 | 14241 ft | 380 kts | 164° |
| 2026-04-23 17:20 | 53.50619 | 10.28687 | 14927 ft | 381 kts | 164° |
| 2026-04-23 17:20 | 53.45459 | 10.31113 | 16197 ft | 388 kts | 164° |
| 2026-04-23 17:21 | 53.40220 | 10.33459 | 17558 ft | 391 kts | 165° |
| 2026-04-23 17:21 | 53.37565 | 10.34624 | 18102 ft | 397 kts | 165° |
| 2026-04-23 17:21 | 53.32172 | 10.37032 | 19175 ft | 404 kts | 164° |
| 2026-04-23 17:22 | 53.29447 | 10.38273 | 19683 ft | 407 kts | 164° |
| 2026-04-23 17:22 | 53.23933 | 10.40775 | 20713 ft | 413 kts | 164° |
| 2026-04-23 17:23 | 53.18356 | 10.43260 | 21756 ft | 418 kts | 164° |
| 2026-04-23 17:23 | 53.15575 | 10.44493 | 22232 ft | 420 kts | 165° |
| 2026-04-23 17:23 | 53.09740 | 10.45415 | 23210 ft | 425 kts | 184° |
| 2026-04-23 17:24 | 53.06772 | 10.45113 | 23658 ft | 429 kts | 184° |
| 2026-04-23 17:24 | 53.03787 | 10.44806 | 24050 ft | 432 kts | 184° |
| 2026-04-23 17:24 | 52.97750 | 10.44189 | 24850 ft | 436 kts | 183° |
| 2026-04-23 17:25 | 52.91670 | 10.43593 | 25611 ft | 440 kts | 183° |
| 2026-04-23 17:25 | 52.88606 | 10.43295 | 25986 ft | 443 kts | 183° |
| 2026-04-23 17:26 | 52.82428 | 10.42688 | 26725 ft | 446 kts | 183° |
| 2026-04-23 17:26 | 52.76203 | 10.42066 | 27472 ft | 450 kts | 183° |
| 2026-04-23 17:27 | 52.70072 | 10.39826 | 28162 ft | 456 kts | 202° |
| 2026-04-23 17:27 | 52.67230 | 10.37501 | 28532 ft | 457 kts | 212° |
| 2026-04-23 17:27 | 52.64643 | 10.34566 | 28844 ft | 459 kts | 216° |
| 2026-04-23 17:27 | 52.62045 | 10.31483 | 29162 ft | 462 kts | 216° |
| 2026-04-23 17:28 | 52.59429 | 10.28398 | 29502 ft | 463 kts | 216° |
| 2026-04-23 17:28 | 52.56800 | 10.25309 | 29803 ft | 466 kts | 216° |
| 2026-04-23 17:28 | 52.54151 | 10.22202 | 30085 ft | 468 kts | 215° |
| 2026-04-23 17:28 | 52.51498 | 10.19097 | 30388 ft | 470 kts | 215° |
| 2026-04-23 17:29 | 52.48811 | 10.15961 | 30631 ft | 472 kts | 215° |
| 2026-04-23 17:29 | 52.46145 | 10.12854 | 30867 ft | 474 kts | 215° |
| 2026-04-23 17:29 | 52.40765 | 10.06594 | 31460 ft | 474 kts | 215° |
| 2026-04-23 17:30 | 52.38985 | 10.04522 | 31685 ft | 474 kts | 215° |
| 2026-04-23 17:30 | 52.32720 | 9.97255 | 32511 ft | 471 kts | 214° |
| 2026-04-23 17:30 | 52.30042 | 9.94166 | 32824 ft | 471 kts | 215° |
| 2026-04-23 17:31 | 52.27296 | 9.91270 | 33168 ft | 470 kts | 207° |
| 2026-04-23 17:31 | 52.24336 | 9.89076 | 33258 ft | 464 kts | 197° |
| 2026-04-23 17:31 | 52.18108 | 9.87052 | 33270 ft | 453 kts | 185° |
| 2026-04-23 17:32 | 52.11884 | 9.85888 | 33273 ft | 454 kts | 185° |
| 2026-04-23 17:32 | 52.05616 | 9.84649 | 33262 ft | 454 kts | 185° |
| 2026-04-23 17:33 | 51.99337 | 9.83404 | 33266 ft | 455 kts | 185° |
| 2026-04-23 17:33 | 51.93056 | 9.82169 | 33265 ft | 454 kts | 185° |
| 2026-04-23 17:34 | 51.86779 | 9.80957 | 33267 ft | 454 kts | 185° |
| 2026-04-23 17:35 | 51.77366 | 9.79161 | 33273 ft | 453 kts | 185° |
| 2026-04-23 17:35 | 51.68019 | 9.77388 | 33275 ft | 452 kts | 185° |
| 2026-04-23 17:36 | 51.61770 | 9.76204 | 33281 ft | 452 kts | 184° |
| 2026-04-23 17:36 | 51.55527 | 9.75016 | 33283 ft | 452 kts | 184° |
| 2026-04-23 17:37 | 51.49282 | 9.73836 | 33283 ft | 451 kts | 184° |
| 2026-04-23 17:38 | 51.39922 | 9.72182 | 33284 ft | 451 kts | 183° |
| 2026-04-23 17:38 | 51.33675 | 9.71223 | 33283 ft | 451 kts | 182° |
| 2026-04-23 17:39 | 51.27428 | 9.70237 | 33276 ft | 451 kts | 183° |
| 2026-04-23 17:39 | 51.21187 | 9.69231 | 33276 ft | 450 kts | 181° |
| 2026-04-23 17:40 | 51.14993 | 9.69260 | 33289 ft | 448 kts | 175° |
| 2026-04-23 17:40 | 51.08770 | 9.69458 | 33294 ft | 447 kts | 175° |
| 2026-04-23 17:41 | 51.02544 | 9.69658 | 33293 ft | 447 kts | 175° |
| 2026-04-23 17:41 | 50.93219 | 9.69958 | 33296 ft | 447 kts | 175° |
| 2026-04-23 17:42 | 50.84957 | 9.70259 | 33293 ft | 445 kts | 174° |
| 2026-04-23 17:43 | 50.78778 | 9.70876 | 33296 ft | 444 kts | 172° |
| 2026-04-23 17:43 | 50.72618 | 9.71633 | 33294 ft | 444 kts | 172° |
| 2026-04-23 17:44 | 50.66448 | 9.72327 | 33291 ft | 444 kts | 173° |
| 2026-04-23 17:44 | 50.57186 | 9.73263 | 33291 ft | 444 kts | 173° |
| 2026-04-23 17:45 | 50.47974 | 9.74175 | 33285 ft | 444 kts | 173° |
| 2026-04-23 17:46 | 50.38728 | 9.75117 | 33278 ft | 444 kts | 172° |
| 2026-04-23 17:46 | 50.32560 | 9.75743 | 33255 ft | 445 kts | 172° |
| 2026-04-23 17:47 | 50.26372 | 9.76367 | 33252 ft | 446 kts | 172° |
| 2026-04-23 17:48 | 50.17078 | 9.77302 | 33263 ft | 446 kts | 172° |
| 2026-04-23 17:48 | 50.10881 | 9.77915 | 33268 ft | 446 kts | 172° |
| 2026-04-23 17:49 | 50.04685 | 9.78519 | 33267 ft | 446 kts | 173° |
| 2026-04-23 17:49 | 49.98476 | 9.78935 | 33265 ft | 447 kts | 174° |
| 2026-04-23 17:50 | 49.92268 | 9.79272 | 33278 ft | 446 kts | 174° |
| 2026-04-23 17:50 | 49.83011 | 9.79829 | 33273 ft | 445 kts | 173° |
| 2026-04-23 17:51 | 49.76817 | 9.80239 | 33288 ft | 445 kts | 173° |
| 2026-04-23 17:52 | 49.67541 | 9.80824 | 33263 ft | 445 kts | 174° |
| 2026-04-23 17:52 | 49.58314 | 9.81762 | 33260 ft | 440 kts | 165° |
| 2026-04-23 17:53 | 49.49283 | 9.84253 | 33268 ft | 439 kts | 165° |
| 2026-04-23 17:54 | 49.43304 | 9.85922 | 33266 ft | 440 kts | 165° |
| 2026-04-23 17:54 | 49.34250 | 9.88415 | 32719 ft | 444 kts | 165° |
| 2026-04-23 17:55 | 49.28161 | 9.90081 | 31360 ft | 441 kts | 165° |
| 2026-04-23 17:55 | 49.25132 | 9.90808 | 30740 ft | 442 kts | 171° |
| 2026-04-23 17:55 | 49.22045 | 9.90574 | 30082 ft | 449 kts | 187° |
| 2026-04-23 17:56 | 49.19071 | 9.89055 | 29462 ft | 454 kts | 204° |
| 2026-04-23 17:56 | 49.14417 | 9.82661 | 28202 ft | 455 kts | 238° |
| 2026-04-23 17:56 | 49.13079 | 9.78306 | 27587 ft | 452 kts | 250° |
| 2026-04-23 17:57 | 49.12004 | 9.73813 | 26970 ft | 449 kts | 250° |
| 2026-04-23 17:57 | 49.10927 | 9.69353 | 26389 ft | 446 kts | 250° |
| 2026-04-23 17:57 | 49.08775 | 9.60529 | 25236 ft | 440 kts | 250° |
| 2026-04-23 17:58 | 49.07708 | 9.56174 | 24678 ft | 437 kts | 250° |
| 2026-04-23 17:58 | 49.06591 | 9.51890 | 24146 ft | 433 kts | 244° |
| 2026-04-23 17:58 | 49.05044 | 9.47970 | 23574 ft | 430 kts | 233° |
| 2026-04-23 17:58 | 49.03057 | 9.44611 | 23069 ft | 424 kts | 221° |
| 2026-04-23 17:59 | 49.00738 | 9.41918 | 22593 ft | 417 kts | 210° |
| 2026-04-23 17:59 | 48.98229 | 9.39777 | 22119 ft | 411 kts | 207° |
| 2026-04-23 17:59 | 48.95733 | 9.37705 | 21647 ft | 406 kts | 207° |
| 2026-04-23 17:59 | 48.93262 | 9.35658 | 21162 ft | 403 kts | 207° |
| 2026-04-23 18:00 | 48.90919 | 9.33346 | 20689 ft | 401 kts | 218° |
| 2026-04-23 18:00 | 48.88858 | 9.30517 | 20215 ft | 398 kts | 224° |
| 2026-04-23 18:00 | 48.86865 | 9.27615 | 19737 ft | 396 kts | 224° |
| 2026-04-23 18:00 | 48.84880 | 9.24727 | 19251 ft | 394 kts | 224° |
| 2026-04-23 18:01 | 48.82903 | 9.21863 | 18771 ft | 392 kts | 224° |
| 2026-04-23 18:01 | 48.80927 | 9.19008 | 18243 ft | 391 kts | 223° |
| 2026-04-23 18:01 | 48.78963 | 9.16178 | 17762 ft | 387 kts | 224° |
| 2026-04-23 18:01 | 48.77215 | 9.13108 | 17283 ft | 384 kts | 236° |
| 2026-04-23 18:02 | 48.75923 | 9.09600 | 16820 ft | 379 kts | 248° |
| 2026-04-23 18:02 | 48.75095 | 9.05827 | 16352 ft | 376 kts | 255° |
| 2026-04-23 18:02 | 48.74388 | 9.02077 | 15889 ft | 374 kts | 255° |
| 2026-04-23 18:02 | 48.73668 | 8.98304 | 15419 ft | 372 kts | 255° |
| 2026-04-23 18:03 | 48.72945 | 8.94558 | 14944 ft | 370 kts | 255° |
| 2026-04-23 18:03 | 48.72221 | 8.90822 | 14480 ft | 368 kts | 255° |
| 2026-04-23 18:03 | 48.71502 | 8.87108 | 14001 ft | 367 kts | 255° |
| 2026-04-23 18:03 | 48.70790 | 8.83418 | 13497 ft | 364 kts | 255° |
| 2026-04-23 18:04 | 48.70080 | 8.79753 | 13010 ft | 361 kts | 255° |
| 2026-04-23 18:04 | 48.69378 | 8.76126 | 12542 ft | 358 kts | 255° |
| 2026-04-23 18:04 | 48.68679 | 8.72525 | 12056 ft | 355 kts | 255° |
| 2026-04-23 18:04 | 48.67982 | 8.68958 | 11558 ft | 353 kts | 255° |
| 2026-04-23 18:05 | 48.67283 | 8.65406 | 11057 ft | 351 kts | 253° |
| 2026-04-23 18:05 | 48.66119 | 8.62181 | 10558 ft | 350 kts | 227° |
| 2026-04-23 18:05 | 48.64165 | 8.60153 | 10427 ft | 335 kts | 199° |
| 2026-04-23 18:05 | 48.61934 | 8.59653 | 10306 ft | 319 kts | 173° |
| 2026-04-23 18:06 | 48.59887 | 8.60618 | 10056 ft | 302 kts | 144° |
| 2026-04-23 18:06 | 48.58504 | 8.62812 | 9671 ft | 282 kts | 115° |
| 2026-04-23 18:06 | 48.57992 | 8.65553 | 9279 ft | 267 kts | 87° |
| 2026-04-23 18:06 | 48.58434 | 8.68219 | 8888 ft | 263 kts | 67° |
| 2026-04-23 18:07 | 48.59078 | 8.70806 | 8512 ft | 264 kts | 70° |
| 2026-04-23 18:07 | 48.59621 | 8.73464 | 7905 ft | 266 kts | 72° |
| 2026-04-23 18:07 | 48.60134 | 8.76149 | 7280 ft | 264 kts | 72° |
| 2026-04-23 18:07 | 48.60639 | 8.78767 | 6883 ft | 254 kts | 72° |
| 2026-04-23 18:08 | 48.60963 | 8.80437 | 6659 ft | 246 kts | 72° |
| 2026-04-23 18:08 | 48.61594 | 8.83685 | 6221 ft | 237 kts | 72° |
| 2026-04-23 18:08 | 48.62051 | 8.86040 | 5902 ft | 236 kts | 72° |
| 2026-04-23 18:08 | 48.62501 | 8.88370 | 5597 ft | 227 kts | 72° |
| 2026-04-23 18:09 | 48.62939 | 8.90633 | 5297 ft | 223 kts | 72° |
| 2026-04-23 18:09 | 48.63374 | 8.92883 | 5001 ft | 222 kts | 73° |
| 2026-04-23 18:09 | 48.63806 | 8.95126 | 4697 ft | 222 kts | 72° |
| 2026-04-23 18:09 | 48.64237 | 8.97361 | 4388 ft | 220 kts | 72° |
| 2026-04-23 18:10 | 48.64663 | 8.99574 | 4099 ft | 218 kts | 72° |
| 2026-04-23 18:10 | 48.65086 | 9.01777 | 3810 ft | 218 kts | 72° |
| 2026-04-23 18:10 | 48.65508 | 9.03974 | 3520 ft | 218 kts | 72° |
| 2026-04-23 18:10 | 48.65925 | 9.06147 | 3226 ft | 210 kts | 72° |
| 2026-04-23 18:11 | 48.66321 | 9.08218 | 2953 ft | 200 kts | 72° |
| 2026-04-23 18:11 | 48.66695 | 9.10173 | 2703 ft | 187 kts | 72° |
| 2026-04-23 18:11 | 48.67038 | 9.11971 | 2473 ft | 167 kts | 72° |
| 2026-04-23 18:11 | 48.67344 | 9.13574 | 2215 ft | 151 kts | 71° |
| 2026-04-23 18:12 | 48.67628 | 9.15049 | 1982 ft | 142 kts | 71° |
| 2026-04-23 18:12 | 48.67904 | 9.16478 | 1797 ft | 141 kts | 72° |
| 2026-04-23 18:12 | 48.68168 | 9.17902 | 1648 ft | 140 kts | 73° |
| 2026-04-23 18:12 | 48.68440 | 9.19324 | 1472 ft | 140 kts | 71° |
| 2026-04-23 18:13 | 48.68719 | 9.20737 | 1299 ft | 140 kts | 72° |
| 2026-04-23 18:13 | 48.68955 | 9.22057 | 1246 ft | 119 kts | 70° |
| 2026-04-23 18:13 | 48.69156 | 9.23032 | 1216 ft | 72 kts | 75° |
| 2026-04-23 18:13 | 48.69257 | 9.23602 | 1205 ft | 51 kts | 75° |
| 2026-04-23 18:14 | 48.69346 | 9.24083 | 1196 ft | 35 kts | 76° |
| 2026-04-23 18:14 | 48.69428 | 9.24309 | 1191 ft | 26 kts | 25° |
| 2026-04-23 18:14 | 48.69526 | 9.24296 | 1192 ft | 7 kts | 341° |
| 2026-04-23 18:14 | 48.69554 | 9.24274 | 1194 ft | 2 kts | 321° |
| 2026-04-23 18:15 | 48.69577 | 9.24222 | 1197 ft | 10 kts | 297° |
| 2026-04-23 18:15 | 48.69604 | 9.24092 | 1202 ft | 13 kts | 268° |
| 2026-04-23 18:15 | 48.69586 | 9.23986 | 1205 ft | 8 kts | 254° |
| 2026-04-23 18:15 | 48.69574 | 9.23921 | 1207 ft | 5 kts | 255° |
| 2026-04-23 18:16 | 48.69567 | 9.23881 | 1207 ft | 5 kts | 255° |
| 2026-04-23 18:16 | 48.69553 | 9.23809 | 1209 ft | 9 kts | 253° |
| 2026-04-23 18:16 | 48.69532 | 9.23696 | 1211 ft | 13 kts | 255° |
| 2026-04-23 18:17 | 48.69471 | 9.23364 | 1218 ft | 18 kts | 255° |
| 2026-04-23 18:17 | 48.69438 | 9.23190 | 1222 ft | 17 kts | 253° |
| 2026-04-23 18:17 | 48.69405 | 9.23027 | 1225 ft | 15 kts | 253° |
| 2026-04-23 18:17 | 48.69377 | 9.22880 | 1228 ft | 13 kts | 255° |
| 2026-04-23 18:18 | 48.69357 | 9.22765 | 1230 ft | 10 kts | 255° |
| 2026-04-23 18:18 | 48.69340 | 9.22676 | 1232 ft | 10 kts | 252° |
| 2026-04-23 18:18 | 48.69317 | 9.22559 | 1248 ft | 13 kts | 254° |
| 2026-04-23 18:18 | 48.69292 | 9.22419 | 1238 ft | 15 kts | 251° |
| 2026-04-23 18:19 | 48.69261 | 9.22264 | 1241 ft | 16 kts | 255° |
| 2026-04-23 18:19 | 48.69228 | 9.22094 | 1254 ft | 18 kts | 253° |
| 2026-04-23 18:19 | 48.69191 | 9.21914 | 1260 ft | 18 kts | 255° |
| 2026-04-23 18:19 | 48.69157 | 9.21721 | 1260 ft | 20 kts | 255° |
| 2026-04-23 18:20 | 48.69119 | 9.21515 | 1262 ft | 21 kts | 255° |
| 2026-04-23 18:20 | 48.69079 | 9.21303 | 1264 ft | 20 kts | 254° |
| 2026-04-23 18:20 | 48.69042 | 9.21108 | 1271 ft | 18 kts | 252° |
| 2026-04-23 18:20 | 48.69009 | 9.20939 | 1272 ft | 16 kts | 254° |
| 2026-04-23 18:21 | 48.68979 | 9.20781 | 1276 ft | 14 kts | 255° |
| 2026-04-23 18:21 | 48.68951 | 9.20635 | 1279 ft | 15 kts | 256° |
| 2026-04-23 18:21 | 48.68921 | 9.20479 | 1283 ft | 16 kts | 252° |
| 2026-04-23 18:21 | 48.68894 | 9.20334 | 1287 ft | 12 kts | 255° |
| 2026-04-23 18:22 | 48.68875 | 9.20230 | 1290 ft | 8 kts | 254° |
| 2026-04-23 18:22 | 48.68862 | 9.20162 | 1292 ft | 5 kts | 254° |
| 2026-04-23 18:22 | 48.68855 | 9.20126 | 1292 ft | 2 kts | 254° |
| 2026-04-23 18:22 | 48.68854 | 9.20120 | 1293 ft | 0 kts | 253° |
| 2026-04-23 18:23 | 48.68853 | 9.20114 | 1293 ft | 2 kts | 254° |
| 2026-04-23 18:23 | 48.68831 | 9.20016 | 1295 ft | 7 kts | 243° |
| 2026-04-23 18:24 | 48.68757 | 9.19842 | 1297 ft | 13 kts | 252° |
| 2026-04-23 18:24 | 48.68731 | 9.19708 | 1300 ft | 14 kts | 254° |
| 2026-04-23 18:24 | 48.68705 | 9.19565 | 1304 ft | 15 kts | 253° |
| 2026-04-23 18:25 | 48.68645 | 9.19260 | 1313 ft | 14 kts | 253° |
| 2026-04-23 18:25 | 48.68689 | 9.19157 | 1317 ft | 13 kts | 339° |
| 2026-04-23 18:25 | 48.68771 | 9.19195 | 1317 ft | 16 kts | 70° |
| 2026-04-23 18:25 | 48.68798 | 9.19329 | 1314 ft | 10 kts | 74° |
| 2026-04-23 18:26 | 48.68831 | 9.19383 | 1314 ft | 6 kts | 351° |
| 2026-04-23 18:26 | 48.68868 | 9.19366 | 1315 ft | 3 kts | 347° |
| 2026-04-23 18:26 | 48.68882 | 9.19360 | 1315 ft | 0 kts | 346° |